ADDS TAF Data INFO
IDs: Format: Raw Decoded Include METARs

Data at: 1517 UTC 16 Jan 2018

KPUB 161453Z 00000KT 10SM CLR M15/M19 A3054 RMK AO2 SLP411 T11501189 53000

KPUB 161135Z 1612/1712 VRB04KT P6SM FEW015
  FM161700 13006KT P6SM SKC
  FM162100 14008KT P6SM FEW250
  FM170100 VRB06KT P6SM SCT250